createdAt,value
2022-08-16T00:00:04.507Z,22.39
2022-08-16T00:01:07.014Z,22.40
2022-08-16T00:02:13.126Z,22.41
2022-08-16T00:03:16.814Z,22.37
2022-08-16T00:04:19.153Z,22.23
2022-08-16T00:05:24.660Z,22.21
2022-08-16T00:06:26.596Z,22.22
2022-08-16T00:07:29.891Z,22.23
2022-08-16T00:08:36.936Z,22.23
2022-08-16T00:09:38.970Z,22.24
2022-08-16T00:10:43.745Z,22.25
2022-08-16T00:11:47.384Z,22.24
2022-08-16T00:12:55.330Z,22.20
2022-08-16T00:13:57.253Z,22.08
2022-08-16T00:15:02.145Z,22.06
2022-08-16T00:17:00.777Z,21.97
2022-08-16T00:17:28.185Z,22.00
2022-08-16T00:18:31.657Z,22.00
2022-08-16T00:19:41.633Z,21.94
2022-08-16T00:20:46.130Z,21.95
2022-08-16T00:21:52.197Z,21.94
2022-08-16T00:22:56.320Z,22.00
2022-08-16T00:23:58.478Z,22.02
2022-08-16T00:25:00.687Z,21.96
2022-08-16T00:26:35.627Z,21.99
2022-08-16T00:27:24.091Z,21.98
2022-08-16T00:28:28.592Z,21.91
2022-08-16T00:29:32.798Z,21.85
2022-08-16T00:30:35.249Z,21.79
2022-08-16T00:31:58.572Z,21.88
2022-08-16T00:33:01.028Z,21.84
2022-08-16T00:34:04.645Z,21.89
2022-08-16T00:35:15.090Z,21.85
2022-08-16T00:36:17.458Z,21.87
2022-08-16T00:37:20.733Z,21.88
2022-08-16T00:38:41.172Z,21.87
2022-08-16T00:39:44.996Z,21.88
2022-08-16T00:40:53.628Z,21.88
2022-08-16T00:41:56.145Z,21.76
2022-08-16T00:42:58.108Z,21.77
2022-08-16T00:44:11.044Z,21.73
2022-08-16T00:45:35.570Z,21.78
2022-08-16T00:46:52.993Z,21.59
2022-08-16T00:48:30.506Z,21.59
2022-08-16T00:49:29.610Z,21.62
2022-08-16T00:50:43.870Z,21.55
2022-08-16T00:51:45.699Z,21.44
2022-08-16T00:52:50.883Z,21.40
2022-08-16T00:53:54.508Z,21.49
2022-08-16T00:54:56.207Z,21.51
2022-08-16T00:56:05.325Z,21.51
2022-08-16T00:57:08.111Z,21.56
2022-08-16T00:58:16.388Z,21.57
2022-08-16T00:59:52.865Z,21.37
2022-08-16T01:01:00.455Z,21.43
2022-08-16T01:02:30.389Z,21.44
2022-08-16T01:03:29.473Z,21.45
2022-08-16T01:04:32.851Z,21.47
2022-08-16T01:05:35.992Z,21.50
2022-08-16T01:06:48.937Z,21.47
2022-08-16T01:08:02.665Z,21.48
2022-08-16T01:09:24.397Z,21.56
2022-08-16T01:10:35.966Z,21.56
2022-08-16T01:11:53.686Z,21.53
2022-08-16T01:12:57.246Z,21.55
2022-08-16T01:14:29.821Z,21.56
2022-08-16T01:15:33.668Z,21.53
2022-08-16T01:16:35.737Z,21.59
2022-08-16T01:17:37.681Z,21.48
2022-08-16T01:18:46.206Z,21.63
2022-08-16T01:19:57.159Z,21.63
2022-08-16T01:21:33.576Z,21.59
2022-08-16T01:22:59.085Z,21.61
2022-08-16T01:24:04.145Z,21.61
2022-08-16T01:25:09.921Z,21.55
2022-08-16T01:26:34.552Z,21.51
2022-08-16T01:27:44.740Z,21.44
2022-08-16T01:28:48.089Z,21.51
2022-08-16T01:29:58.532Z,21.49
2022-08-16T01:31:05.217Z,21.43
2022-08-16T01:32:06.961Z,21.38
2022-08-16T01:33:15.060Z,21.45
2022-08-16T01:34:25.140Z,21.48
2022-08-16T01:36:00.619Z,21.45
2022-08-16T01:37:09.966Z,21.41
2022-08-16T01:38:40.168Z,21.38
2022-08-16T01:39:48.904Z,21.40
2022-08-16T01:40:54.463Z,21.43
2022-08-16T01:41:56.172Z,21.45
2022-08-16T01:43:00.537Z,21.47
2022-08-16T01:44:03.518Z,21.37
2022-08-16T01:45:06.047Z,21.48
2022-08-16T01:46:30.144Z,21.42
2022-08-16T01:47:49.377Z,21.47
2022-08-16T01:49:00.203Z,21.48
2022-08-16T01:50:42.342Z,21.47
2022-08-16T01:51:27.281Z,21.48
2022-08-16T01:52:30.547Z,21.42
2022-08-16T01:53:32.470Z,21.43
2022-08-16T01:54:37.444Z,21.39
2022-08-16T01:55:40.907Z,21.36
2022-08-16T01:56:42.852Z,21.29
2022-08-16T01:57:53.776Z,21.23
2022-08-16T01:59:00.742Z,21.24
2022-08-16T02:00:18.995Z,21.15
2022-08-16T02:01:21.519Z,21.00
2022-08-16T02:02:27.277Z,21.09
2022-08-16T02:03:30.601Z,21.16
2022-08-16T02:04:48.562Z,20.98
2022-08-16T02:05:56.059Z,21.17
2022-08-16T02:06:59.503Z,21.21
2022-08-16T02:08:02.940Z,21.24
2022-08-16T02:09:11.929Z,21.26
2022-08-16T02:10:15.156Z,21.29
2022-08-16T02:11:19.884Z,21.33
2022-08-16T02:12:49.640Z,21.35
2022-08-16T02:13:44.235Z,21.36
2022-08-16T02:14:45.974Z,21.31
2022-08-16T02:15:48.339Z,21.36
2022-08-16T02:16:52.584Z,21.39
2022-08-16T02:17:56.795Z,21.39
2022-08-16T02:18:59.398Z,21.39
2022-08-16T02:20:01.265Z,21.29
2022-08-16T02:21:04.849Z,21.41
2022-08-16T02:22:35.087Z,21.42
2022-08-16T02:23:29.613Z,21.44
2022-08-16T02:24:40.662Z,21.42
2022-08-16T02:25:51.213Z,21.40
2022-08-16T02:26:56.434Z,21.40
2022-08-16T02:27:59.629Z,21.41
2022-08-16T02:29:02.157Z,21.38
2022-08-16T02:30:06.488Z,21.38
2022-08-16T02:31:11.382Z,21.35
2022-08-16T02:32:50.795Z,21.41
2022-08-16T02:33:43.842Z,21.41
2022-08-16T02:34:50.721Z,21.40
2022-08-16T02:35:59.944Z,21.43
2022-08-16T02:37:02.229Z,21.41
2022-08-16T02:38:08.532Z,21.37
2022-08-16T02:39:14.806Z,21.28
2022-08-16T02:40:17.420Z,21.38
2022-08-16T02:41:19.902Z,21.35
2022-08-16T02:42:21.873Z,21.28
2022-08-16T02:43:27.532Z,21.16
2022-08-16T02:44:31.463Z,21.01
2022-08-16T02:45:33.978Z,20.93
2022-08-16T02:46:35.672Z,20.90
2022-08-16T02:48:01.856Z,20.80
2022-08-16T02:49:01.724Z,20.97
2022-08-16T02:50:55.260Z,21.06
2022-08-16T02:51:27.526Z,21.07
2022-08-16T02:52:29.678Z,21.17
2022-08-16T02:53:35.126Z,21.11
2022-08-16T02:54:37.591Z,20.95
2022-08-16T02:55:41.613Z,20.98
2022-08-16T02:56:43.500Z,21.01
2022-08-16T02:57:54.057Z,20.87
2022-08-16T02:58:56.731Z,20.93
2022-08-16T02:59:58.607Z,20.94
2022-08-16T03:01:03.381Z,20.98
2022-08-16T03:02:08.057Z,21.02
2022-08-16T03:03:10.999Z,20.96
2022-08-16T03:04:41.008Z,21.03
2022-08-16T03:05:41.405Z,21.04
2022-08-16T03:06:44.204Z,21.12
2022-08-16T03:07:50.624Z,21.09
2022-08-16T03:08:53.382Z,21.16
2022-08-16T03:09:55.160Z,21.13
2022-08-16T03:11:02.504Z,21.10
2022-08-16T03:12:05.643Z,21.08
2022-08-16T03:13:12.464Z,20.97
2022-08-16T03:14:21.162Z,20.88
2022-08-16T03:15:27.724Z,20.77
2022-08-16T03:16:37.924Z,20.66
2022-08-16T03:17:53.937Z,20.66
2022-08-16T03:18:56.393Z,20.52
2022-08-16T03:20:02.467Z,20.36
2022-08-16T03:21:05.074Z,20.18
2022-08-16T03:22:07.282Z,19.99
2022-08-16T03:23:09.007Z,20.14
2022-08-16T03:24:28.303Z,20.22
2022-08-16T03:25:44.062Z,20.13
2022-08-16T03:26:46.501Z,20.21
2022-08-16T03:27:48.267Z,20.19
2022-08-16T03:28:51.899Z,20.13
2022-08-16T03:29:54.310Z,19.98
2022-08-16T03:30:56.490Z,20.04
2022-08-16T03:32:01.957Z,20.13
2022-08-16T03:33:04.683Z,20.23
2022-08-16T03:34:09.123Z,20.20
2022-08-16T03:35:11.169Z,20.23
2022-08-16T03:36:30.138Z,20.32
2022-08-16T03:37:33.237Z,20.18
2022-08-16T03:38:55.032Z,20.33
2022-08-16T03:40:02.799Z,20.39
2022-08-16T03:41:14.071Z,20.31
2022-08-16T03:42:26.946Z,20.38
2022-08-16T03:43:51.135Z,20.41
2022-08-16T03:44:51.757Z,20.44
2022-08-16T03:46:05.053Z,20.49
2022-08-16T03:47:10.427Z,20.54
2022-08-16T03:48:15.209Z,20.60
2022-08-16T03:49:22.620Z,20.53
2022-08-16T03:50:26.158Z,20.62
2022-08-16T03:51:28.870Z,20.65
2022-08-16T03:52:31.650Z,20.71
2022-08-16T03:53:38.059Z,20.73
2022-08-16T03:54:53.736Z,20.76
2022-08-16T03:55:59.620Z,20.80
2022-08-16T03:57:01.765Z,20.68
2022-08-16T03:58:03.509Z,20.85
2022-08-16T03:59:06.722Z,20.95
2022-08-16T04:00:20.273Z,21.02
2022-08-16T04:01:35.403Z,21.12
2022-08-16T04:02:37.272Z,21.18
2022-08-16T04:03:42.129Z,21.28
2022-08-16T04:04:47.073Z,21.32
2022-08-16T04:05:51.286Z,21.40
2022-08-16T04:06:55.961Z,21.47
2022-08-16T04:07:57.645Z,21.53
2022-08-16T04:08:59.364Z,21.61
2022-08-16T04:10:36.429Z,21.69
2022-08-16T04:11:26.992Z,21.81
2022-08-16T04:12:54.778Z,21.89
2022-08-16T04:14:00.334Z,21.99
2022-08-16T04:15:13.537Z,22.05
2022-08-16T04:16:21.916Z,22.19
2022-08-16T04:17:29.714Z,22.25
2022-08-16T04:18:32.151Z,22.29
2022-08-16T04:19:35.680Z,22.39
2022-08-16T04:20:38.985Z,22.47
2022-08-16T04:21:45.883Z,22.57
2022-08-16T04:22:49.250Z,22.68
2022-08-16T04:23:51.470Z,22.79
2022-08-16T04:24:59.257Z,22.92
2022-08-16T04:26:02.075Z,22.94
2022-08-16T04:27:04.984Z,23.09
2022-08-16T04:28:29.284Z,23.26
2022-08-16T04:29:43.912Z,23.50
2022-08-16T04:30:50.531Z,23.68
2022-08-16T04:31:56.629Z,23.84
2022-08-16T04:32:59.811Z,23.99
2022-08-16T04:34:02.179Z,24.12
2022-08-16T04:35:16.345Z,24.26
2022-08-16T04:36:19.958Z,24.41
2022-08-16T04:37:22.227Z,24.48
2022-08-16T04:38:24.749Z,24.64
2022-08-16T04:39:37.084Z,24.75
2022-08-16T04:40:50.048Z,24.93
2022-08-16T04:41:56.823Z,25.05
2022-08-16T04:43:01.315Z,25.29
2022-08-16T04:44:32.492Z,25.42
2022-08-16T04:45:35.564Z,25.50
2022-08-16T04:47:01.420Z,25.64
2022-08-16T04:48:00.277Z,25.54
2022-08-16T04:49:03.471Z,25.31
2022-08-16T04:50:09.889Z,25.33
2022-08-16T04:51:12.694Z,25.53
2022-08-16T04:52:34.518Z,25.69
2022-08-16T04:53:36.716Z,25.97
2022-08-16T04:54:43.294Z,26.21
2022-08-16T04:55:45.081Z,26.41
2022-08-16T04:56:46.937Z,26.52
2022-08-16T04:57:53.798Z,26.74
2022-08-16T04:58:57.699Z,26.88
2022-08-16T05:00:30.645Z,27.06
2022-08-16T05:01:21.641Z,27.21
2022-08-16T05:02:41.989Z,27.45
2022-08-16T05:03:59.903Z,27.63
2022-08-16T05:05:03.988Z,27.83
2022-08-16T05:06:09.223Z,28.02
2022-08-16T05:07:14.983Z,28.15
2022-08-16T05:08:29.269Z,28.32
2022-08-16T05:09:36.517Z,28.45
2022-08-16T05:10:40.513Z,28.61
2022-08-16T05:11:42.258Z,28.80
2022-08-16T05:12:44.771Z,29.02
2022-08-16T05:13:47.964Z,29.26
2022-08-16T05:15:01.778Z,29.44
2022-08-16T05:16:05.148Z,29.69
2022-08-16T05:17:07.955Z,29.87
2022-08-16T05:18:15.805Z,29.85
2022-08-16T05:19:19.110Z,30.15
2022-08-16T05:20:45.085Z,30.25
2022-08-16T05:21:43.333Z,30.32
2022-08-16T05:22:45.237Z,30.52
2022-08-16T05:23:51.660Z,30.48
2022-08-16T05:25:00.581Z,30.66
2022-08-16T05:26:02.563Z,30.75
2022-08-16T05:27:11.376Z,30.82
2022-08-16T05:28:13.743Z,30.88
2022-08-16T05:29:15.511Z,30.86
2022-08-16T05:30:35.089Z,30.92
2022-08-16T05:31:48.426Z,31.09
2022-08-16T05:32:55.538Z,31.19
2022-08-16T05:33:59.770Z,31.34
2022-08-16T05:35:01.811Z,31.51
2022-08-16T05:36:04.613Z,31.67
2022-08-16T05:37:16.186Z,31.81
2022-08-16T05:38:32.717Z,31.85
2022-08-16T05:39:40.955Z,31.84
2022-08-16T05:40:43.118Z,31.84
2022-08-16T05:42:01.421Z,31.77
2022-08-16T05:43:03.508Z,31.83
2022-08-16T05:44:23.279Z,31.81
2022-08-16T05:45:26.628Z,31.97
2022-08-16T05:46:31.144Z,32.04
2022-08-16T05:47:33.187Z,32.02
2022-08-16T05:48:44.887Z,31.92
2022-08-16T05:49:57.265Z,31.81
2022-08-16T05:50:59.596Z,31.88
2022-08-16T05:52:01.454Z,31.84
2022-08-16T05:53:03.273Z,31.79
2022-08-16T05:54:05.087Z,32.02
2022-08-16T05:55:07.751Z,32.17
2022-08-16T05:56:11.307Z,32.27
2022-08-16T05:57:21.933Z,32.65
2022-08-16T05:58:32.830Z,32.82
2022-08-16T05:59:35.306Z,32.99
2022-08-16T06:00:38.571Z,33.09
2022-08-16T06:01:41.398Z,33.30
2022-08-16T06:02:43.878Z,33.34
2022-08-16T06:03:45.961Z,33.30
2022-08-16T06:04:49.672Z,33.43
2022-08-16T06:05:51.364Z,33.69
2022-08-16T06:06:57.031Z,33.56
2022-08-16T06:07:59.379Z,33.74
2022-08-16T06:09:01.137Z,33.92
2022-08-16T06:10:02.932Z,33.95
2022-08-16T06:11:11.312Z,34.07
2022-08-16T06:12:27.243Z,34.12
2022-08-16T06:13:32.482Z,34.30
2022-08-16T06:14:34.730Z,34.48
2022-08-16T06:15:37.979Z,34.71
2022-08-16T06:16:43.343Z,34.98
2022-08-16T06:17:46.216Z,35.12
2022-08-16T06:18:48.195Z,35.42
2022-08-16T06:19:52.325Z,35.56
2022-08-16T06:20:55.785Z,35.53
2022-08-16T06:21:57.859Z,35.80
2022-08-16T06:23:03.928Z,35.82
2022-08-16T06:24:54.217Z,35.94
2022-08-16T06:25:36.158Z,36.03
2022-08-16T06:26:44.596Z,36.13
2022-08-16T06:27:59.406Z,36.24
2022-08-16T06:29:03.036Z,36.43
2022-08-16T06:30:07.958Z,36.50
2022-08-16T06:31:12.273Z,36.35
2022-08-16T06:32:27.878Z,36.40
2022-08-16T06:33:30.371Z,36.36
2022-08-16T06:34:57.267Z,36.33
2022-08-16T06:36:04.347Z,36.42
2022-08-16T06:37:10.216Z,36.40
2022-08-16T06:38:32.611Z,36.31
2022-08-16T06:39:34.328Z,36.40
2022-08-16T06:40:36.314Z,36.36
2022-08-16T06:41:39.763Z,36.37
2022-08-16T06:42:47.706Z,36.49
2022-08-16T06:43:51.172Z,36.45
2022-08-16T06:44:53.079Z,36.55
2022-08-16T06:45:55.747Z,36.65
2022-08-16T06:46:57.566Z,36.71
2022-08-16T06:48:05.580Z,36.90
2022-08-16T06:49:10.865Z,37.11
2022-08-16T06:50:22.210Z,37.30
2022-08-16T06:51:45.691Z,37.36
2022-08-16T06:52:58.294Z,37.48
2022-08-16T06:54:14.222Z,37.57
2022-08-16T06:55:17.407Z,37.59
2022-08-16T06:56:19.738Z,37.77
2022-08-16T06:57:24.965Z,37.90
2022-08-16T06:58:31.951Z,38.03
2022-08-16T06:59:52.382Z,38.14
2022-08-16T07:00:55.657Z,38.28
2022-08-16T07:02:01.391Z,38.29
2022-08-16T07:03:04.001Z,38.33
2022-08-16T07:04:32.874Z,38.44
2022-08-16T07:05:41.606Z,38.64
2022-08-16T07:06:45.005Z,38.75
2022-08-16T07:07:50.955Z,38.80
2022-08-16T07:08:52.994Z,38.83
2022-08-16T07:09:55.153Z,38.86
2022-08-16T07:10:58.812Z,38.90
2022-08-16T07:12:05.460Z,38.99
2022-08-16T07:13:11.820Z,39.12
2022-08-16T07:14:25.028Z,39.18
2022-08-16T07:15:28.302Z,39.31
2022-08-16T07:16:30.452Z,39.38
2022-08-16T07:17:33.432Z,39.33
2022-08-16T07:18:36.832Z,39.43
2022-08-16T07:20:02.547Z,39.56
2022-08-16T07:21:02.507Z,39.80
2022-08-16T07:22:04.352Z,39.87
2022-08-16T07:23:13.269Z,40.01
2022-08-16T07:24:29.792Z,40.27
2022-08-16T07:25:32.510Z,40.50
2022-08-16T07:26:34.333Z,40.59
2022-08-16T07:27:37.238Z,40.69
2022-08-16T07:28:39.373Z,40.72
2022-08-16T07:29:42.098Z,40.78
2022-08-16T07:30:46.441Z,40.80
2022-08-16T07:31:49.214Z,40.92
2022-08-16T07:32:51.633Z,40.94
2022-08-16T07:33:55.090Z,40.86
2022-08-16T07:34:56.979Z,40.91
2022-08-16T07:36:00.122Z,40.97
2022-08-16T07:37:10.307Z,41.09
2022-08-16T07:38:12.362Z,41.11
2022-08-16T07:39:15.282Z,41.21
2022-08-16T07:40:17.840Z,41.18
2022-08-16T07:41:19.678Z,41.23
2022-08-16T07:42:28.245Z,41.30
2022-08-16T07:43:40.526Z,41.49
2022-08-16T07:44:50.388Z,41.53
2022-08-16T07:45:53.433Z,41.54
2022-08-16T07:46:56.611Z,41.31
2022-08-16T07:47:58.323Z,41.48
2022-08-16T07:49:02.416Z,41.46
2022-08-16T07:50:07.699Z,41.52
2022-08-16T07:51:09.732Z,41.53
2022-08-16T07:52:18.969Z,41.36
2022-08-16T07:53:21.999Z,41.42
2022-08-16T07:54:31.969Z,41.48
2022-08-16T07:55:45.624Z,41.44
2022-08-16T07:56:49.733Z,41.56
2022-08-16T07:58:00.957Z,41.44
2022-08-16T07:59:07.063Z,41.49
2022-08-16T08:00:18.761Z,41.30
2022-08-16T08:01:24.806Z,41.31
2022-08-16T08:02:30.366Z,41.34
2022-08-16T08:03:35.974Z,41.41
2022-08-16T08:04:42.140Z,41.46
2022-08-16T08:05:44.106Z,41.47
2022-08-16T08:06:50.983Z,41.48
2022-08-16T08:07:53.778Z,41.45
2022-08-16T08:09:00.397Z,41.45
2022-08-16T08:10:03.938Z,41.55
2022-08-16T08:11:08.866Z,41.52
2022-08-16T08:12:32.368Z,41.59
2022-08-16T08:13:41.720Z,41.52
2022-08-16T08:14:44.527Z,41.44
2022-08-16T08:15:52.435Z,41.50
2022-08-16T08:16:54.597Z,41.52
2022-08-16T08:17:56.709Z,41.59
2022-08-16T08:19:18.418Z,41.58
2022-08-16T08:20:28.482Z,41.72
2022-08-16T08:21:59.979Z,41.87
2022-08-16T08:23:01.148Z,41.93
2022-08-16T08:24:03.438Z,42.03
2022-08-16T08:25:12.946Z,41.81
2022-08-16T08:26:17.782Z,41.79
2022-08-16T08:27:22.966Z,41.88
2022-08-16T08:28:25.567Z,41.71
2022-08-16T08:29:37.254Z,41.68
2022-08-16T08:30:51.723Z,41.53
2022-08-16T08:32:01.621Z,41.39
2022-08-16T08:33:03.565Z,41.35
2022-08-16T08:34:07.365Z,41.61
2022-08-16T08:35:09.657Z,41.60
2022-08-16T08:36:22.191Z,41.48
2022-08-16T08:37:24.260Z,41.61
2022-08-16T08:38:43.747Z,41.69
2022-08-16T08:39:54.758Z,41.60
2022-08-16T08:40:57.252Z,41.48
2022-08-16T08:42:03.675Z,41.50
2022-08-16T08:43:12.051Z,41.43
2022-08-16T08:44:29.272Z,41.32
2022-08-16T08:45:52.482Z,41.29
2022-08-16T08:47:00.703Z,41.25
2022-08-16T08:48:03.650Z,41.38
2022-08-16T08:49:08.844Z,41.42
2022-08-16T08:50:11.260Z,41.45
2022-08-16T08:51:35.833Z,41.38
2022-08-16T08:52:40.737Z,41.45
2022-08-16T08:53:43.321Z,41.61
2022-08-16T08:54:45.047Z,41.80
2022-08-16T08:55:59.284Z,41.81
2022-08-16T08:57:01.308Z,41.73
2022-08-16T08:58:03.928Z,41.79
2022-08-16T08:59:13.091Z,41.78
2022-08-16T09:00:21.616Z,41.91
2022-08-16T09:01:31.382Z,41.96
2022-08-16T09:02:33.831Z,41.95
2022-08-16T09:03:39.540Z,41.82
2022-08-16T09:04:44.681Z,41.73
2022-08-16T09:05:51.826Z,41.50
2022-08-16T09:06:54.030Z,41.68
2022-08-16T09:08:01.447Z,41.85
2022-08-16T09:09:07.726Z,41.82
2022-08-16T09:10:20.900Z,41.87
2022-08-16T09:11:23.283Z,41.89
2022-08-16T09:12:42.733Z,41.93
2022-08-16T09:13:49.586Z,41.94
2022-08-16T09:14:52.927Z,41.81
2022-08-16T09:15:55.889Z,41.68
2022-08-16T09:17:02.881Z,41.50
2022-08-16T09:18:24.811Z,41.26
2022-08-16T09:19:32.325Z,40.96
2022-08-16T09:20:35.634Z,40.80
2022-08-16T09:21:57.820Z,40.65
2022-08-16T09:23:02.856Z,40.62
2022-08-16T09:24:10.034Z,40.80
2022-08-16T09:25:14.724Z,40.69
2022-08-16T09:26:44.954Z,40.90
2022-08-16T09:27:46.771Z,40.84
2022-08-16T09:29:15.931Z,40.85
2022-08-16T09:30:34.706Z,40.86
2022-08-16T09:31:41.951Z,40.68
2022-08-16T09:32:46.978Z,40.57
2022-08-16T09:33:51.994Z,40.33
2022-08-16T09:34:53.982Z,40.32
2022-08-16T09:36:01.377Z,40.20
2022-08-16T09:37:03.252Z,40.48
2022-08-16T09:38:31.977Z,40.55
2022-08-16T09:39:41.294Z,40.62
2022-08-16T09:40:47.306Z,40.79
2022-08-16T09:41:53.778Z,40.96
2022-08-16T09:42:59.146Z,40.97
2022-08-16T09:45:12.315Z,41.01
2022-08-16T09:45:25.859Z,41.14
2022-08-16T09:46:45.507Z,41.23
2022-08-16T09:47:56.591Z,41.20
2022-08-16T09:49:03.732Z,41.21
2022-08-16T09:50:11.961Z,41.21
2022-08-16T09:51:14.378Z,41.22
2022-08-16T09:52:16.332Z,40.98
2022-08-16T09:53:23.159Z,41.09
2022-08-16T09:54:32.727Z,41.09
2022-08-16T09:55:44.751Z,41.08
2022-08-16T09:56:51.338Z,41.13
2022-08-16T09:57:55.280Z,41.17
2022-08-16T09:59:05.525Z,41.31
2022-08-16T10:00:42.605Z,41.10
2022-08-16T10:01:34.707Z,41.22
2022-08-16T10:02:44.327Z,41.33
2022-08-16T10:04:01.548Z,41.44
2022-08-16T10:05:05.467Z,41.61
2022-08-16T10:06:07.259Z,41.62
2022-08-16T10:07:15.942Z,41.70
2022-08-16T10:08:25.958Z,41.74
2022-08-16T10:09:53.897Z,41.78
2022-08-16T10:11:09.797Z,41.85
2022-08-16T10:12:30.236Z,41.76
2022-08-16T10:13:34.433Z,41.70
2022-08-16T10:14:36.765Z,41.49
2022-08-16T10:15:41.641Z,41.36
2022-08-16T10:16:48.816Z,41.31
2022-08-16T10:17:59.976Z,41.31
2022-08-16T10:19:06.760Z,41.24
2022-08-16T10:20:18.538Z,41.23
2022-08-16T10:21:20.889Z,41.27
2022-08-16T10:22:24.520Z,41.30
2022-08-16T10:23:26.303Z,41.27
2022-08-16T10:24:30.505Z,41.15
2022-08-16T10:27:17.537Z,40.74
2022-08-16T10:27:17.574Z,40.99
2022-08-16T10:28:28.932Z,40.68
2022-08-16T10:30:00.185Z,40.64
2022-08-16T10:30:56.536Z,40.68
2022-08-16T10:32:00.769Z,40.71
2022-08-16T10:33:05.796Z,40.67
2022-08-16T10:34:31.203Z,40.73
2022-08-16T10:35:32.550Z,40.61
2022-08-16T10:36:38.865Z,40.33
2022-08-16T10:37:41.472Z,40.15
2022-08-16T10:38:43.857Z,40.41
2022-08-16T10:39:45.614Z,40.51
2022-08-16T10:40:48.184Z,40.45
2022-08-16T10:41:50.094Z,40.28
2022-08-16T10:42:51.881Z,40.28
2022-08-16T10:43:53.649Z,40.35
2022-08-16T10:44:55.346Z,40.47
2022-08-16T10:46:00.954Z,40.64
2022-08-16T10:47:03.244Z,40.85
2022-08-16T10:48:28.017Z,40.67
2022-08-16T10:49:29.665Z,40.46
2022-08-16T10:50:32.760Z,40.45
2022-08-16T10:52:02.503Z,40.64
2022-08-16T10:52:59.078Z,40.82
2022-08-16T10:54:02.503Z,40.76
2022-08-16T10:56:52.318Z,40.87
2022-08-16T10:57:55.325Z,40.83
2022-08-16T11:00:22.631Z,40.58
2022-08-16T11:01:43.339Z,40.49
2022-08-16T11:02:57.880Z,40.68
2022-08-16T11:04:02.992Z,40.71
2022-08-16T11:05:24.833Z,40.73
2022-08-16T11:06:28.688Z,40.79
2022-08-16T11:07:52.642Z,40.84
2022-08-16T11:09:21.004Z,40.76
2022-08-16T11:11:05.272Z,40.90
2022-08-16T11:12:13.287Z,41.10
2022-08-16T11:14:24.600Z,41.08
2022-08-16T11:15:26.902Z,41.09
2022-08-16T11:18:48.842Z,41.07
2022-08-16T11:19:15.309Z,41.04
2022-08-16T11:23:06.061Z,41.40
2022-08-16T11:24:40.015Z,41.35
2022-08-16T11:28:36.483Z,41.49
2022-08-16T11:29:37.484Z,41.48
2022-08-16T11:30:39.622Z,41.34
2022-08-16T11:31:45.393Z,41.31
2022-08-16T11:32:48.118Z,41.27
2022-08-16T11:33:52.499Z,41.26
2022-08-16T11:35:10.189Z,40.70
2022-08-16T11:36:25.088Z,40.54
2022-08-16T11:37:34.247Z,40.55
2022-08-16T11:38:57.647Z,40.52
2022-08-16T11:40:00.608Z,40.42
2022-08-16T11:41:03.607Z,40.19
2022-08-16T11:42:07.747Z,39.95
2022-08-16T11:43:30.682Z,39.57
2022-08-16T11:44:52.226Z,39.36
2022-08-16T11:45:56.906Z,39.39
2022-08-16T11:46:59.584Z,39.21
2022-08-16T11:48:05.227Z,38.96
2022-08-16T11:49:12.751Z,38.90
2022-08-16T11:50:16.800Z,38.80
2022-08-16T11:51:18.893Z,38.76
2022-08-16T11:52:21.830Z,38.67
2022-08-16T11:53:24.899Z,38.55
2022-08-16T11:54:35.773Z,38.45
2022-08-16T11:55:39.369Z,38.49
2022-08-16T11:56:53.194Z,38.55
2022-08-16T11:58:00.513Z,38.59
2022-08-16T11:59:02.277Z,38.73
2022-08-16T12:00:08.263Z,38.69
2022-08-16T12:01:54.729Z,38.72
2022-08-16T12:02:51.780Z,38.71
2022-08-16T12:03:53.521Z,38.78
2022-08-16T12:04:55.971Z,38.77
2022-08-16T12:05:59.292Z,38.82
2022-08-16T12:07:02.929Z,38.85
2022-08-16T12:08:06.800Z,38.87
2022-08-16T12:09:08.608Z,38.95
2022-08-16T12:10:17.201Z,39.01
2022-08-16T12:11:19.681Z,39.18
2022-08-16T12:12:24.182Z,39.27
2022-08-16T12:13:26.445Z,39.40
2022-08-16T12:14:29.973Z,39.47
2022-08-16T12:15:37.941Z,39.44
2022-08-16T12:16:40.244Z,39.56
2022-08-16T12:17:50.839Z,39.63
2022-08-16T12:18:53.185Z,39.67
2022-08-16T12:19:54.931Z,39.64
2022-08-16T12:20:58.353Z,39.56
2022-08-16T12:22:05.334Z,39.50
2022-08-16T12:23:08.178Z,39.36
2022-08-16T12:24:10.121Z,39.29
2022-08-16T12:25:16.602Z,39.33
2022-08-16T12:26:18.452Z,39.40
2022-08-16T12:27:23.246Z,39.35
2022-08-16T12:28:37.003Z,39.39
2022-08-16T12:29:46.986Z,39.40
2022-08-16T12:30:48.766Z,39.40
2022-08-16T12:32:00.505Z,39.39
2022-08-16T12:33:04.981Z,39.28
2022-08-16T12:34:09.501Z,39.31
2022-08-16T12:35:22.692Z,38.86
2022-08-16T12:36:26.241Z,38.85
2022-08-16T12:37:31.990Z,39.01
2022-08-16T12:38:41.224Z,38.67
2022-08-16T12:39:52.149Z,38.58
2022-08-16T12:40:55.617Z,38.65
2022-08-16T12:41:59.259Z,38.56
2022-08-16T12:43:06.567Z,38.70
2022-08-16T12:44:08.653Z,38.76
2022-08-16T12:45:18.044Z,38.93
2022-08-16T12:46:21.313Z,39.04
2022-08-16T12:47:42.255Z,39.26
2022-08-16T12:48:58.897Z,38.96
2022-08-16T12:50:01.947Z,39.14
2022-08-16T12:51:19.999Z,39.17
2022-08-16T12:52:33.778Z,39.19
2022-08-16T12:53:39.674Z,39.31
2022-08-16T12:54:41.861Z,38.94
2022-08-16T12:55:44.961Z,39.01
2022-08-16T12:56:47.154Z,39.05
2022-08-16T12:57:58.057Z,38.94
2022-08-16T12:59:02.865Z,38.55
2022-08-16T13:00:28.698Z,38.32
2022-08-16T13:01:36.630Z,38.63
2022-08-16T13:02:38.796Z,38.73
2022-08-16T13:03:41.549Z,38.74
2022-08-16T13:04:43.365Z,38.70
2022-08-16T13:05:53.603Z,38.62
2022-08-16T13:06:59.095Z,38.80
2022-08-16T13:08:01.080Z,38.91
2022-08-16T13:09:19.411Z,38.99
2022-08-16T13:10:37.224Z,38.87
2022-08-16T13:11:55.138Z,38.91
2022-08-16T13:12:59.806Z,38.84
2022-08-16T13:14:01.912Z,38.67
2022-08-16T13:15:10.965Z,38.61
2022-08-16T13:16:20.117Z,38.53
2022-08-16T13:17:26.294Z,38.54
2022-08-16T13:18:34.609Z,38.27
2022-08-16T13:20:06.507Z,38.27
2022-08-16T13:20:59.171Z,38.19
2022-08-16T13:22:00.882Z,38.31
2022-08-16T13:23:08.600Z,37.91
2022-08-16T13:24:11.204Z,37.96
2022-08-16T13:25:20.931Z,38.07
2022-08-16T13:26:26.173Z,38.12
2022-08-16T13:28:14.832Z,38.02
2022-08-16T13:28:50.289Z,37.91
2022-08-16T13:29:57.492Z,37.90
2022-08-16T13:30:59.582Z,37.86
2022-08-16T13:32:01.509Z,37.78
2022-08-16T13:33:11.173Z,37.67
2022-08-16T13:34:14.322Z,37.58
2022-08-16T13:35:21.914Z,37.32
2022-08-16T13:36:47.648Z,37.25
2022-08-16T13:37:45.303Z,37.27
2022-08-16T13:38:47.213Z,37.03
2022-08-16T13:39:51.188Z,37.29
2022-08-16T13:40:56.181Z,37.37
2022-08-16T13:42:01.717Z,37.48
2022-08-16T13:43:03.708Z,37.52
2022-08-16T13:44:09.405Z,37.56
2022-08-16T13:45:15.683Z,37.46
2022-08-16T13:46:17.747Z,37.68
2022-08-16T13:47:19.584Z,37.80
2022-08-16T13:48:24.974Z,38.03
2022-08-16T13:49:27.214Z,38.03
2022-08-16T13:50:51.283Z,37.84
2022-08-16T13:51:53.993Z,38.07
2022-08-16T13:52:56.541Z,38.20
2022-08-16T13:54:03.861Z,38.27
2022-08-16T13:55:06.490Z,38.38
2022-08-16T13:56:25.009Z,38.47
2022-08-16T13:58:26.807Z,38.48
2022-08-16T13:58:54.082Z,38.55
2022-08-16T13:59:57.858Z,38.62
2022-08-16T14:01:00.487Z,38.59
2022-08-16T14:02:06.855Z,38.61
2022-08-16T14:03:09.426Z,38.67
2022-08-16T14:04:18.981Z,38.60
2022-08-16T14:05:25.239Z,38.75
2022-08-16T14:06:26.946Z,38.76
2022-08-16T14:07:30.495Z,38.79
2022-08-16T14:08:32.369Z,38.87
2022-08-16T14:09:36.564Z,38.98
2022-08-16T14:10:38.713Z,39.11
2022-08-16T14:11:40.437Z,39.21
2022-08-16T14:12:42.904Z,39.28
2022-08-16T14:13:44.971Z,39.25
2022-08-16T14:14:48.275Z,39.21
2022-08-16T14:15:50.144Z,39.04
2022-08-16T14:16:51.902Z,38.84
2022-08-16T14:18:19.916Z,38.76
2022-08-16T14:19:22.348Z,38.22
2022-08-16T14:20:25.750Z,37.96
2022-08-16T14:21:27.493Z,37.75
2022-08-16T14:22:42.435Z,38.09
2022-08-16T14:23:44.587Z,38.24
2022-08-16T14:24:48.898Z,38.39
2022-08-16T14:25:54.075Z,38.44
2022-08-16T14:26:56.214Z,38.52
2022-08-16T14:27:58.673Z,38.62
2022-08-16T14:29:03.771Z,38.69
2022-08-16T14:30:09.952Z,38.73
2022-08-16T14:31:11.736Z,38.68
2022-08-16T14:32:26.993Z,38.62
2022-08-16T14:33:35.833Z,38.60
2022-08-16T14:34:37.709Z,38.52
2022-08-16T14:35:50.130Z,38.46
2022-08-16T14:36:53.073Z,38.42
2022-08-16T14:37:56.946Z,38.30
2022-08-16T14:39:00.492Z,38.33
2022-08-16T14:40:03.321Z,38.27
2022-08-16T14:41:10.183Z,38.25
2022-08-16T14:42:18.356Z,38.22